CDT,Max TemperatureF,Mean TemperatureF,Min TemperatureF,Max Dew PointF,MeanDew PointF,Min DewpointF,Max Humidity, Mean Humidity, Min Humidity, Max Sea Level PressureIn, Mean Sea Level PressureIn, Min Sea Level PressureIn, Max VisibilityMiles, Mean VisibilityMiles, Min VisibilityMiles, Max Wind SpeedMPH, Mean Wind SpeedMPH, Max Gust SpeedMPH,PrecipitationIn, CloudCover, Events, WindDirDegrees
2013-3-1,24,14,5,16,10,1,92,80,63,30.38,30.34,30.26,10,10,4,9,6,,0.00,1,,339
2013-3-2,24,12,0,16,9,-4,93,81,69,30.35,30.22,30.05,10,7,0,13,4,,0.00,6,Fog-Snow,134
2013-3-3,30,22,14,25,17,10,93,81,69,30.05,29.91,29.81,10,9,2,25,13,32,0.00,2,Snow,128
2013-3-4,26,24,23,25,23,19,93,88,80,29.91,29.84,29.78,10,3,1,24,17,33,0.02,8,Snow,129
2013-3-5,26,22,19,25,19,16,93,85,80,30.37,30.16,29.89,10,5,1,24,12,31,0.02,8,Snow,349
2013-3-6,21,19,17,16,13,12,93,78,68,30.43,30.36,30.29,10,8,3,12,7,9,0.00,8,Snow,24
2013-3-7,26,22,17,19,16,12,93,83,74,30.30,30.22,30.14,10,9,5,22,14,25,0.00,4,,133
2013-3-8,30,21,12,28,17,9,93,85,69,30.23,30.16,29.97,10,4,2,14,4,,0.38,2,,102
2013-3-9,32,29,26,30,28,23,100,92,86,29.96,29.82,29.71,5,1,0,25,5,32,0.72,8,Fog-Rain-Snow,345
2013-3-10,26,19,10,25,16,5,93,84,73,30.12,30.04,29.90,10,4,1,29,23,37,0.00,7,Snow,343
2013-3-11,32,18,3,21,8,0,85,75,63,30.03,29.90,29.82,10,10,10,15,9,17,0.00,4,,322
2013-3-12,30,24,17,23,16,12,86,80,69,30.29,30.07,29.85,10,8,2,21,13,30,0.00,6,Snow,322
2013-3-13,24,14,5,21,11,1,86,78,63,30.38,30.29,30.08,10,10,7,17,7,,0.00,2,Snow,162
2013-3-14,35,28,21,28,24,18,93,81,69,30.10,30.05,29.99,10,8,4,17,8,,0.00,1,,114
2013-3-15,32,26,19,28,23,18,93,87,80,30.04,29.93,29.82,7,5,1,18,12,24,0.00,8,Rain-Snow,358
2013-3-16,19,10,1,16,4,-2,93,80,73,30.27,30.18,29.99,10,8,2,20,14,26,0.00,3,Snow,337
2013-3-17,28,14,1,27,9,-2,93,79,67,30.26,29.98,29.61,10,7,0,29,12,36,0.01,6,Snow,125
2013-3-18,33,20,8,30,11,0,93,75,62,29.97,29.72,29.48,10,9,3,32,20,41,0.00,5,Snow,286
2013-3-19,15,8,1,5,0,-6,79,65,49,30.32,30.16,29.97,10,10,10,21,14,29,0.00,2,,312
2013-3-20,17,9,1,5,0,-6,79,66,53,30.33,30.27,30.16,10,10,10,17,12,22,0.00,0,,315
2013-3-21,19,7,-5,9,0,-9,85,73,58,30.15,30.09,30.04,10,10,10,7,3,,0.00,0,,3
2013-3-22,21,10,0,14,5,-6,92,77,63,30.11,30.07,30.05,10,10,7,7,3,,0.00,1,,354
2013-3-23,26,19,12,18,12,7,86,72,55,30.18,30.15,30.10,10,10,10,10,6,,0.00,3,Snow,325
2013-3-24,28,21,14,23,16,10,86,81,69,30.16,30.11,30.07,10,8,2,21,12,25,0.00,5,Snow,333
2013-3-25,26,22,17,19,17,12,93,80,69,30.33,30.24,30.15,10,9,4,21,16,26,0.00,6,Snow,334
2013-3-26,24,17,10,16,12,7,92,79,68,30.34,30.31,30.26,10,10,10,10,6,,0.00,0,,344
2013-3-27,35,20,6,27,16,1,93,82,70,30.30,30.28,30.25,10,7,0,12,3,,0.00,2,Fog-Snow,118
2013-3-28,37,30,24,30,27,19,93,81,70,30.26,30.23,30.20,10,10,7,16,9,20,0.00,4,,120
2013-3-29,42,34,26,34,30,25,100,88,70,30.21,30.11,29.90,10,4,0,10,4,,0.00,4,Fog-Rain,115
2013-3-30,39,36,32,34,31,30,93,85,70,29.96,29.93,29.88,7,4,0,14,7,17,0.00,4,Fog-Rain-Thunderstorm,316
2013-3-31,33,27,19,30,21,12,93,74,59,30.21,30.02,29.88,10,10,5,25,14,33,0.00,4,,328